sensor_id;sensor_type;location;lat;lon;timestamp;P1;durP1;ratioP1;P2;durP2;ratioP2
8312;SDS011;4194;43.408;24.626;2024-02-21T00:02:20;30.50;;;19.43;;
8312;SDS011;4194;43.408;24.626;2024-02-21T00:04:46;28.23;;;18.73;;
8312;SDS011;4194;43.408;24.626;2024-02-21T00:07:12;31.17;;;18.63;;
8312;SDS011;4194;43.408;24.626;2024-02-21T00:09:37;28.43;;;17.97;;
8312;SDS011;4194;43.408;24.626;2024-02-21T00:12:03;27.57;;;17.13;;
8312;SDS011;4194;43.408;24.626;2024-02-21T00:14:30;27.67;;;16.23;;
8312;SDS011;4194;43.408;24.626;2024-02-21T00:16:56;28.07;;;18.23;;
8312;SDS011;4194;43.408;24.626;2024-02-21T00:19:21;28.97;;;17.57;;
8312;SDS011;4194;43.408;24.626;2024-02-21T00:21:47;23.83;;;15.00;;
8312;SDS011;4194;43.408;24.626;2024-02-21T00:24:13;28.87;;;15.63;;
8312;SDS011;4194;43.408;24.626;2024-02-21T00:26:39;25.27;;;15.77;;
8312;SDS011;4194;43.408;24.626;2024-02-21T00:29:04;25.23;;;15.60;;
8312;SDS011;4194;43.408;24.626;2024-02-21T00:31:30;26.03;;;15.10;;
8312;SDS011;4194;43.408;24.626;2024-02-21T00:33:57;26.33;;;16.27;;
8312;SDS011;4194;43.408;24.626;2024-02-21T00:36:23;26.57;;;16.17;;
8312;SDS011;4194;43.408;24.626;2024-02-21T00:38:48;24.27;;;15.80;;
8312;SDS011;4194;43.408;24.626;2024-02-21T00:41:14;22.43;;;15.83;;
8312;SDS011;4194;43.408;24.626;2024-02-21T00:43:40;26.43;;;15.87;;
8312;SDS011;4194;43.408;24.626;2024-02-21T00:46:08;26.07;;;16.13;;
8312;SDS011;4194;43.408;24.626;2024-02-21T00:48:34;29.37;;;17.00;;
8312;SDS011;4194;43.408;24.626;2024-02-21T00:50:59;21.87;;;14.33;;
8312;SDS011;4194;43.408;24.626;2024-02-21T00:53:25;22.93;;;15.47;;
8312;SDS011;4194;43.408;24.626;2024-02-21T00:55:51;23.77;;;15.63;;
8312;SDS011;4194;43.408;24.626;2024-02-21T00:58:16;25.07;;;15.90;;
8312;SDS011;4194;43.408;24.626;2024-02-21T01:00:42;20.53;;;14.63;;
8312;SDS011;4194;43.408;24.626;2024-02-21T01:03:08;20.93;;;13.20;;
8312;SDS011;4194;43.408;24.626;2024-02-21T01:05:34;21.07;;;13.23;;
8312;SDS011;4194;43.408;24.626;2024-02-21T01:08:00;19.07;;;13.10;;
8312;SDS011;4194;43.408;24.626;2024-02-21T01:10:26;20.90;;;13.77;;
8312;SDS011;4194;43.408;24.626;2024-02-21T01:12:51;21.07;;;14.20;;
8312;SDS011;4194;43.408;24.626;2024-02-21T01:15:17;18.27;;;12.27;;
8312;SDS011;4194;43.408;24.626;2024-02-21T01:17:43;19.53;;;12.60;;
8312;SDS011;4194;43.408;24.626;2024-02-21T01:20:09;17.77;;;11.80;;
8312;SDS011;4194;43.408;24.626;2024-02-21T01:22:35;20.03;;;12.10;;
8312;SDS011;4194;43.408;24.626;2024-02-21T01:25:00;18.77;;;12.17;;
8312;SDS011;4194;43.408;24.626;2024-02-21T01:27:26;16.70;;;12.30;;
8312;SDS011;4194;43.408;24.626;2024-02-21T01:29:52;18.90;;;12.10;;
8312;SDS011;4194;43.408;24.626;2024-02-21T01:32:18;18.17;;;12.93;;
8312;SDS011;4194;43.408;24.626;2024-02-21T01:34:43;17.47;;;12.03;;
8312;SDS011;4194;43.408;24.626;2024-02-21T01:37:09;18.53;;;12.73;;
8312;SDS011;4194;43.408;24.626;2024-02-21T01:39:35;17.67;;;11.77;;
8312;SDS011;4194;43.408;24.626;2024-02-21T01:42:01;19.17;;;12.60;;
8312;SDS011;4194;43.408;24.626;2024-02-21T01:44:26;17.27;;;12.33;;
8312;SDS011;4194;43.408;24.626;2024-02-21T01:46:52;16.40;;;11.53;;
8312;SDS011;4194;43.408;24.626;2024-02-21T01:49:19;18.93;;;12.10;;
8312;SDS011;4194;43.408;24.626;2024-02-21T01:51:45;17.17;;;12.20;;
8312;SDS011;4194;43.408;24.626;2024-02-21T01:54:13;16.87;;;12.30;;
8312;SDS011;4194;43.408;24.626;2024-02-21T01:56:41;18.70;;;12.07;;
8312;SDS011;4194;43.408;24.626;2024-02-21T01:59:08;16.90;;;11.90;;
8312;SDS011;4194;43.408;24.626;2024-02-21T02:01:34;18.07;;;13.23;;
8312;SDS011;4194;43.408;24.626;2024-02-21T02:03:59;17.63;;;11.63;;
8312;SDS011;4194;43.408;24.626;2024-02-21T02:06:25;17.27;;;11.97;;
8312;SDS011;4194;43.408;24.626;2024-02-21T02:08:52;19.60;;;12.83;;
8312;SDS011;4194;43.408;24.626;2024-02-21T02:11:19;19.50;;;12.27;;
8312;SDS011;4194;43.408;24.626;2024-02-21T02:13:45;16.03;;;11.57;;
8312;SDS011;4194;43.408;24.626;2024-02-21T02:16:10;19.97;;;13.43;;
8312;SDS011;4194;43.408;24.626;2024-02-21T02:18:36;19.30;;;13.30;;
8312;SDS011;4194;43.408;24.626;2024-02-21T02:21:03;19.47;;;13.30;;
8312;SDS011;4194;43.408;24.626;2024-02-21T02:23:33;20.70;;;13.33;;
8312;SDS011;4194;43.408;24.626;2024-02-21T02:26:00;18.83;;;11.80;;
8312;SDS011;4194;43.408;24.626;2024-02-21T02:28:28;17.73;;;12.33;;
8312;SDS011;4194;43.408;24.626;2024-02-21T02:30:54;17.70;;;12.87;;
8312;SDS011;4194;43.408;24.626;2024-02-21T02:33:20;24.53;;;16.17;;
8312;SDS011;4194;43.408;24.626;2024-02-21T02:35:45;22.83;;;15.33;;
8312;SDS011;4194;43.408;24.626;2024-02-21T02:38:11;20.97;;;14.20;;
8312;SDS011;4194;43.408;24.626;2024-02-21T02:40:38;20.50;;;13.27;;
8312;SDS011;4194;43.408;24.626;2024-02-21T02:43:07;21.80;;;13.70;;
8312;SDS011;4194;43.408;24.626;2024-02-21T02:45:33;19.07;;;13.57;;
8312;SDS011;4194;43.408;24.626;2024-02-21T02:47:59;18.07;;;12.97;;
8312;SDS011;4194;43.408;24.626;2024-02-21T02:50:25;15.17;;;11.57;;
8312;SDS011;4194;43.408;24.626;2024-02-21T02:52:52;17.97;;;12.33;;
8312;SDS011;4194;43.408;24.626;2024-02-21T02:55:18;16.27;;;11.00;;
8312;SDS011;4194;43.408;24.626;2024-02-21T02:57:44;14.90;;;10.80;;
8312;SDS011;4194;43.408;24.626;2024-02-21T03:00:11;14.57;;;10.73;;
8312;SDS011;4194;43.408;24.626;2024-02-21T03:02:41;15.47;;;10.73;;
8312;SDS011;4194;43.408;24.626;2024-02-21T03:05:14;14.37;;;11.13;;
8312;SDS011;4194;43.408;24.626;2024-02-21T03:07:41;14.57;;;10.97;;
8312;SDS011;4194;43.408;24.626;2024-02-21T03:10:07;18.03;;;11.07;;
8312;SDS011;4194;43.408;24.626;2024-02-21T03:12:33;15.90;;;10.13;;
8312;SDS011;4194;43.408;24.626;2024-02-21T03:14:59;16.30;;;11.20;;
8312;SDS011;4194;43.408;24.626;2024-02-21T03:17:25;14.73;;;10.07;;
8312;SDS011;4194;43.408;24.626;2024-02-21T03:19:54;15.07;;;10.53;;
8312;SDS011;4194;43.408;24.626;2024-02-21T03:22:20;16.27;;;10.50;;
8312;SDS011;4194;43.408;24.626;2024-02-21T03:24:46;15.60;;;10.77;;
8312;SDS011;4194;43.408;24.626;2024-02-21T03:27:12;18.70;;;11.37;;
8312;SDS011;4194;43.408;24.626;2024-02-21T03:29:38;16.67;;;11.27;;
8312;SDS011;4194;43.408;24.626;2024-02-21T03:32:04;18.33;;;11.27;;
8312;SDS011;4194;43.408;24.626;2024-02-21T03:34:29;18.03;;;12.00;;
8312;SDS011;4194;43.408;24.626;2024-02-21T03:36:55;19.87;;;11.47;;
8312;SDS011;4194;43.408;24.626;2024-02-21T03:39:21;15.17;;;10.83;;
8312;SDS011;4194;43.408;24.626;2024-02-21T03:41:47;17.67;;;11.23;;
8312;SDS011;4194;43.408;24.626;2024-02-21T03:44:13;16.07;;;10.27;;
8312;SDS011;4194;43.408;24.626;2024-02-21T03:46:38;16.07;;;10.77;;
8312;SDS011;4194;43.408;24.626;2024-02-21T03:49:04;16.23;;;10.00;;
8312;SDS011;4194;43.408;24.626;2024-02-21T03:51:30;16.43;;;9.77;;
8312;SDS011;4194;43.408;24.626;2024-02-21T03:53:56;13.33;;;9.70;;
8312;SDS011;4194;43.408;24.626;2024-02-21T03:56:22;16.90;;;10.27;;
8312;SDS011;4194;43.408;24.626;2024-02-21T03:58:49;14.10;;;10.50;;
8312;SDS011;4194;43.408;24.626;2024-02-21T04:01:15;13.57;;;10.43;;
8312;SDS011;4194;43.408;24.626;2024-02-21T04:03:42;14.87;;;10.27;;
8312;SDS011;4194;43.408;24.626;2024-02-21T04:06:11;14.73;;;9.67;;
8312;SDS011;4194;43.408;24.626;2024-02-21T04:08:37;15.93;;;9.87;;
8312;SDS011;4194;43.408;24.626;2024-02-21T04:11:04;14.63;;;9.57;;
8312;SDS011;4194;43.408;24.626;2024-02-21T04:13:29;17.50;;;10.77;;
8312;SDS011;4194;43.408;24.626;2024-02-21T04:15:55;15.43;;;9.87;;
8312;SDS011;4194;43.408;24.626;2024-02-21T04:18:22;14.37;;;10.00;;
8312;SDS011;4194;43.408;24.626;2024-02-21T04:20:47;12.60;;;9.57;;
8312;SDS011;4194;43.408;24.626;2024-02-21T04:23:13;13.93;;;9.97;;
8312;SDS011;4194;43.408;24.626;2024-02-21T04:25:39;12.07;;;8.77;;
8312;SDS011;4194;43.408;24.626;2024-02-21T04:28:05;15.53;;;9.93;;
8312;SDS011;4194;43.408;24.626;2024-02-21T04:30:30;12.53;;;8.83;;
8312;SDS011;4194;43.408;24.626;2024-02-21T04:32:56;13.63;;;8.70;;
8312;SDS011;4194;43.408;24.626;2024-02-21T04:35:22;16.83;;;9.30;;
8312;SDS011;4194;43.408;24.626;2024-02-21T04:37:48;14.17;;;9.17;;
8312;SDS011;4194;43.408;24.626;2024-02-21T04:40:14;16.07;;;10.67;;
8312;SDS011;4194;43.408;24.626;2024-02-21T04:42:41;19.03;;;11.90;;
8312;SDS011;4194;43.408;24.626;2024-02-21T04:45:07;14.80;;;11.17;;
8312;SDS011;4194;43.408;24.626;2024-02-21T04:47:33;19.20;;;11.17;;
8312;SDS011;4194;43.408;24.626;2024-02-21T04:49:59;14.63;;;10.77;;
8312;SDS011;4194;43.408;24.626;2024-02-21T04:52:25;18.67;;;11.63;;
8312;SDS011;4194;43.408;24.626;2024-02-21T04:54:51;17.77;;;12.03;;
8312;SDS011;4194;43.408;24.626;2024-02-21T04:57:17;16.13;;;11.83;;
8312;SDS011;4194;43.408;24.626;2024-02-21T04:59:44;15.00;;;9.50;;
8312;SDS011;4194;43.408;24.626;2024-02-21T05:02:10;17.53;;;10.17;;
8312;SDS011;4194;43.408;24.626;2024-02-21T05:04:36;19.67;;;11.53;;
8312;SDS011;4194;43.408;24.626;2024-02-21T05:07:03;16.10;;;11.33;;
8312;SDS011;4194;43.408;24.626;2024-02-21T05:09:29;22.13;;;11.70;;
8312;SDS011;4194;43.408;24.626;2024-02-21T05:11:55;21.73;;;12.70;;
8312;SDS011;4194;43.408;24.626;2024-02-21T05:14:20;19.27;;;11.67;;
8312;SDS011;4194;43.408;24.626;2024-02-21T05:16:46;18.90;;;12.77;;
8312;SDS011;4194;43.408;24.626;2024-02-21T05:19:12;20.20;;;13.00;;
8312;SDS011;4194;43.408;24.626;2024-02-21T05:21:37;22.27;;;13.03;;
8312;SDS011;4194;43.408;24.626;2024-02-21T05:24:03;19.53;;;11.93;;
8312;SDS011;4194;43.408;24.626;2024-02-21T05:26:29;22.57;;;13.00;;
8312;SDS011;4194;43.408;24.626;2024-02-21T05:28:55;19.67;;;12.20;;
8312;SDS011;4194;43.408;24.626;2024-02-21T05:31:21;17.10;;;11.87;;
8312;SDS011;4194;43.408;24.626;2024-02-21T05:33:47;17.93;;;12.00;;
8312;SDS011;4194;43.408;24.626;2024-02-21T05:36:13;19.40;;;13.38;;
8312;SDS011;4194;43.408;24.626;2024-02-21T05:38:39;17.97;;;11.80;;
8312;SDS011;4194;43.408;24.626;2024-02-21T05:41:04;19.03;;;12.53;;
8312;SDS011;4194;43.408;24.626;2024-02-21T05:43:32;18.37;;;11.07;;
8312;SDS011;4194;43.408;24.626;2024-02-21T05:45:58;18.77;;;11.30;;
8312;SDS011;4194;43.408;24.626;2024-02-21T05:48:24;18.27;;;10.10;;
8312;SDS011;4194;43.408;24.626;2024-02-21T05:50:49;21.80;;;12.07;;
8312;SDS011;4194;43.408;24.626;2024-02-21T05:53:16;16.80;;;10.93;;
8312;SDS011;4194;43.408;24.626;2024-02-21T05:55:42;16.40;;;10.03;;
8312;SDS011;4194;43.408;24.626;2024-02-21T05:58:08;15.80;;;9.40;;
8312;SDS011;4194;43.408;24.626;2024-02-21T06:00:38;16.87;;;9.10;;
8312;SDS011;4194;43.408;24.626;2024-02-21T06:03:04;12.83;;;8.83;;
8312;SDS011;4194;43.408;24.626;2024-02-21T06:05:30;12.03;;;8.13;;
8312;SDS011;4194;43.408;24.626;2024-02-21T06:07:56;13.83;;;8.27;;
8312;SDS011;4194;43.408;24.626;2024-02-21T06:10:22;11.40;;;7.97;;
8312;SDS011;4194;43.408;24.626;2024-02-21T06:12:48;13.17;;;8.43;;
8312;SDS011;4194;43.408;24.626;2024-02-21T06:15:14;12.30;;;8.23;;
8312;SDS011;4194;43.408;24.626;2024-02-21T06:17:39;13.47;;;7.93;;
8312;SDS011;4194;43.408;24.626;2024-02-21T06:20:05;10.73;;;7.63;;
8312;SDS011;4194;43.408;24.626;2024-02-21T06:22:31;11.73;;;7.80;;
8312;SDS011;4194;43.408;24.626;2024-02-21T06:24:57;16.27;;;8.77;;
8312;SDS011;4194;43.408;24.626;2024-02-21T06:27:23;13.70;;;8.13;;
8312;SDS011;4194;43.408;24.626;2024-02-21T06:29:49;12.27;;;7.47;;
8312;SDS011;4194;43.408;24.626;2024-02-21T06:32:15;11.60;;;8.27;;
8312;SDS011;4194;43.408;24.626;2024-02-21T06:34:41;16.27;;;9.47;;
8312;SDS011;4194;43.408;24.626;2024-02-21T06:37:06;14.30;;;9.33;;
8312;SDS011;4194;43.408;24.626;2024-02-21T06:39:32;14.23;;;9.60;;
8312;SDS011;4194;43.408;24.626;2024-02-21T06:41:58;19.20;;;9.53;;
8312;SDS011;4194;43.408;24.626;2024-02-21T06:44:23;15.67;;;10.37;;
8312;SDS011;4194;43.408;24.626;2024-02-21T06:46:49;15.50;;;8.87;;
8312;SDS011;4194;43.408;24.626;2024-02-21T06:49:15;13.33;;;9.17;;
8312;SDS011;4194;43.408;24.626;2024-02-21T06:51:44;11.70;;;8.60;;
8312;SDS011;4194;43.408;24.626;2024-02-21T06:54:10;11.03;;;8.67;;
8312;SDS011;4194;43.408;24.626;2024-02-21T06:56:36;14.83;;;8.37;;
8312;SDS011;4194;43.408;24.626;2024-02-21T06:59:02;10.33;;;7.60;;
8312;SDS011;4194;43.408;24.626;2024-02-21T07:01:29;11.13;;;8.67;;
8312;SDS011;4194;43.408;24.626;2024-02-21T07:03:55;16.87;;;7.97;;
8312;SDS011;4194;43.408;24.626;2024-02-21T07:06:21;18.50;;;8.77;;
8312;SDS011;4194;43.408;24.626;2024-02-21T07:08:47;16.33;;;7.73;;
8312;SDS011;4194;43.408;24.626;2024-02-21T07:11:13;16.17;;;7.77;;
8312;SDS011;4194;43.408;24.626;2024-02-21T07:13:39;18.27;;;8.60;;
8312;SDS011;4194;43.408;24.626;2024-02-21T07:16:05;16.53;;;8.97;;
8312;SDS011;4194;43.408;24.626;2024-02-21T07:18:31;13.50;;;9.80;;
8312;SDS011;4194;43.408;24.626;2024-02-21T07:20:58;15.93;;;10.80;;
8312;SDS011;4194;43.408;24.626;2024-02-21T07:23:23;15.77;;;10.50;;
8312;SDS011;4194;43.408;24.626;2024-02-21T07:25:49;18.10;;;10.37;;
8312;SDS011;4194;43.408;24.626;2024-02-21T07:28:15;15.43;;;11.70;;
8312;SDS011;4194;43.408;24.626;2024-02-21T07:30:42;19.63;;;12.57;;
8312;SDS011;4194;43.408;24.626;2024-02-21T07:33:08;22.27;;;11.73;;
8312;SDS011;4194;43.408;24.626;2024-02-21T07:35:34;17.23;;;12.53;;
8312;SDS011;4194;43.408;24.626;2024-02-21T07:38:03;18.40;;;14.13;;
8312;SDS011;4194;43.408;24.626;2024-02-21T07:40:29;14.93;;;12.13;;
8312;SDS011;4194;43.408;24.626;2024-02-21T07:42:55;19.37;;;14.10;;
8312;SDS011;4194;43.408;24.626;2024-02-21T07:45:21;21.93;;;14.60;;
8312;SDS011;4194;43.408;24.626;2024-02-21T07:47:48;18.60;;;15.13;;
8312;SDS011;4194;43.408;24.626;2024-02-21T07:50:15;19.23;;;14.30;;
8312;SDS011;4194;43.408;24.626;2024-02-21T07:52:40;18.13;;;13.80;;
8312;SDS011;4194;43.408;24.626;2024-02-21T07:55:07;20.90;;;13.27;;
8312;SDS011;4194;43.408;24.626;2024-02-21T07:57:33;22.90;;;13.57;;
8312;SDS011;4194;43.408;24.626;2024-02-21T07:59:58;21.77;;;14.10;;
8312;SDS011;4194;43.408;24.626;2024-02-21T08:02:24;20.20;;;14.17;;
8312;SDS011;4194;43.408;24.626;2024-02-21T08:04:50;20.27;;;14.73;;
8312;SDS011;4194;43.408;24.626;2024-02-21T08:07:16;26.73;;;15.00;;
8312;SDS011;4194;43.408;24.626;2024-02-21T08:09:41;23.30;;;17.07;;
8312;SDS011;4194;43.408;24.626;2024-02-21T08:12:08;23.33;;;15.97;;
8312;SDS011;4194;43.408;24.626;2024-02-21T08:14:34;16.60;;;12.47;;
8312;SDS011;4194;43.408;24.626;2024-02-21T08:17:00;19.53;;;13.50;;
8312;SDS011;4194;43.408;24.626;2024-02-21T08:19:26;18.10;;;13.53;;
8312;SDS011;4194;43.408;24.626;2024-02-21T08:21:52;17.90;;;12.23;;
8312;SDS011;4194;43.408;24.626;2024-02-21T08:24:17;15.67;;;12.20;;
8312;SDS011;4194;43.408;24.626;2024-02-21T08:26:43;16.03;;;12.13;;
8312;SDS011;4194;43.408;24.626;2024-02-21T08:29:10;16.93;;;12.57;;
8312;SDS011;4194;43.408;24.626;2024-02-21T08:31:36;20.17;;;13.37;;
8312;SDS011;4194;43.408;24.626;2024-02-21T08:34:02;16.97;;;12.63;;
8312;SDS011;4194;43.408;24.626;2024-02-21T08:36:32;16.30;;;11.47;;
8312;SDS011;4194;43.408;24.626;2024-02-21T08:38:58;17.87;;;12.20;;
8312;SDS011;4194;43.408;24.626;2024-02-21T08:41:25;16.20;;;12.07;;
8312;SDS011;4194;43.408;24.626;2024-02-21T08:43:51;17.00;;;12.07;;
8312;SDS011;4194;43.408;24.626;2024-02-21T08:46:18;18.50;;;12.33;;
8312;SDS011;4194;43.408;24.626;2024-02-21T08:48:45;17.20;;;12.43;;
8312;SDS011;4194;43.408;24.626;2024-02-21T08:51:11;14.13;;;10.87;;
8312;SDS011;4194;43.408;24.626;2024-02-21T08:53:37;18.37;;;11.73;;
8312;SDS011;4194;43.408;24.626;2024-02-21T08:56:03;16.53;;;11.50;;
8312;SDS011;4194;43.408;24.626;2024-02-21T08:58:31;12.40;;;10.77;;
8312;SDS011;4194;43.408;24.626;2024-02-21T09:00:56;13.17;;;10.67;;
8312;SDS011;4194;43.408;24.626;2024-02-21T09:03:22;17.83;;;11.80;;
8312;SDS011;4194;43.408;24.626;2024-02-21T09:05:48;15.87;;;11.10;;
8312;SDS011;4194;43.408;24.626;2024-02-21T09:08:14;15.60;;;11.23;;
8312;SDS011;4194;43.408;24.626;2024-02-21T09:10:40;14.97;;;11.13;;
8312;SDS011;4194;43.408;24.626;2024-02-21T09:13:05;21.40;;;11.17;;
8312;SDS011;4194;43.408;24.626;2024-02-21T09:15:33;15.53;;;11.57;;
8312;SDS011;4194;43.408;24.626;2024-02-21T09:18:02;15.40;;;12.03;;
8312;SDS011;4194;43.408;24.626;2024-02-21T09:20:28;14.43;;;11.63;;
8312;SDS011;4194;43.408;24.626;2024-02-21T09:22:54;17.50;;;11.33;;
8312;SDS011;4194;43.408;24.626;2024-02-21T09:25:20;14.00;;;10.63;;
8312;SDS011;4194;43.408;24.626;2024-02-21T09:27:45;13.10;;;11.63;;
8312;SDS011;4194;43.408;24.626;2024-02-21T09:30:11;14.00;;;11.43;;
8312;SDS011;4194;43.408;24.626;2024-02-21T09:32:37;14.30;;;11.50;;
8312;SDS011;4194;43.408;24.626;2024-02-21T09:35:03;16.30;;;11.73;;
8312;SDS011;4194;43.408;24.626;2024-02-21T09:37:32;15.33;;;12.00;;
8312;SDS011;4194;43.408;24.626;2024-02-21T09:39:58;15.33;;;11.10;;
8312;SDS011;4194;43.408;24.626;2024-02-21T09:42:59;14.00;;;11.93;;
8312;SDS011;4194;43.408;24.626;2024-02-21T09:45:21;13.33;;;11.40;;
8312;SDS011;4194;43.408;24.626;2024-02-21T09:50:34;15.17;;;11.27;;
8312;SDS011;4194;43.408;24.626;2024-02-21T09:53:01;17.63;;;11.60;;
8312;SDS011;4194;43.408;24.626;2024-02-21T09:55:30;16.07;;;10.97;;
8312;SDS011;4194;43.408;24.626;2024-02-21T09:57:59;19.73;;;12.23;;
8312;SDS011;4194;43.408;24.626;2024-02-21T10:00:26;13.10;;;10.93;;
8312;SDS011;4194;43.408;24.626;2024-02-21T10:02:53;13.33;;;10.30;;
8312;SDS011;4194;43.408;24.626;2024-02-21T10:05:19;16.27;;;11.53;;
8312;SDS011;4194;43.408;24.626;2024-02-21T10:07:45;12.47;;;9.90;;
8312;SDS011;4194;43.408;24.626;2024-02-21T10:10:11;11.77;;;9.97;;
8312;SDS011;4194;43.408;24.626;2024-02-21T10:12:47;13.03;;;10.27;;
8312;SDS011;4194;43.408;24.626;2024-02-21T10:15:19;13.30;;;10.13;;
8312;SDS011;4194;43.408;24.626;2024-02-21T10:17:49;11.73;;;9.40;;
8312;SDS011;4194;43.408;24.626;2024-02-21T10:20:25;11.23;;;9.13;;
8312;SDS011;4194;43.408;24.626;2024-02-21T10:23:00;11.13;;;9.23;;
8312;SDS011;4194;43.408;24.626;2024-02-21T10:25:28;12.87;;;9.73;;
8312;SDS011;4194;43.408;24.626;2024-02-21T10:27:54;13.27;;;8.83;;
8312;SDS011;4194;43.408;24.626;2024-02-21T10:30:19;11.63;;;9.80;;
8312;SDS011;4194;43.408;24.626;2024-02-21T10:32:51;13.40;;;9.60;;
8312;SDS011;4194;43.408;24.626;2024-02-21T10:35:30;11.80;;;9.77;;
8312;SDS011;4194;43.408;24.626;2024-02-21T10:37:57;12.83;;;10.63;;
8312;SDS011;4194;43.408;24.626;2024-02-21T10:40:23;13.63;;;9.83;;
8312;SDS011;4194;43.408;24.626;2024-02-21T10:42:57;14.13;;;9.10;;
8312;SDS011;4194;43.408;24.626;2024-02-21T10:45:30;12.70;;;9.67;;
8312;SDS011;4194;43.408;24.626;2024-02-21T10:48:13;10.10;;;8.67;;
8312;SDS011;4194;43.408;24.626;2024-02-21T10:51:25;9.73;;;8.57;;
8312;SDS011;4194;43.408;24.626;2024-02-21T10:55:58;11.60;;;8.47;;
8312;SDS011;4194;43.408;24.626;2024-02-21T10:58:36;9.47;;;7.80;;
8312;SDS011;4194;43.408;24.626;2024-02-21T11:01:03;9.07;;;8.13;;
8312;SDS011;4194;43.408;24.626;2024-02-21T11:03:30;8.07;;;7.27;;
8312;SDS011;4194;43.408;24.626;2024-02-21T11:05:56;9.70;;;6.80;;
8312;SDS011;4194;43.408;24.626;2024-02-21T11:08:23;9.47;;;7.03;;
8312;SDS011;4194;43.408;24.626;2024-02-21T11:10:56;9.20;;;7.03;;
8312;SDS011;4194;43.408;24.626;2024-02-21T11:13:37;8.20;;;6.67;;
8312;SDS011;4194;43.408;24.626;2024-02-21T11:16:07;9.20;;;7.13;;
8312;SDS011;4194;43.408;24.626;2024-02-21T11:18:34;7.77;;;5.47;;
8312;SDS011;4194;43.408;24.626;2024-02-21T11:21:00;6.53;;;5.23;;
8312;SDS011;4194;43.408;24.626;2024-02-21T11:23:26;6.67;;;4.30;;
8312;SDS011;4194;43.408;24.626;2024-02-21T11:25:52;9.23;;;4.47;;
8312;SDS011;4194;43.408;24.626;2024-02-21T11:28:28;4.70;;;4.30;;
8312;SDS011;4194;43.408;24.626;2024-02-21T11:31:04;5.20;;;4.17;;
8312;SDS011;4194;43.408;24.626;2024-02-21T11:33:34;5.53;;;4.47;;
8312;SDS011;4194;43.408;24.626;2024-02-21T11:36:00;4.90;;;4.23;;
8312;SDS011;4194;43.408;24.626;2024-02-21T11:38:29;4.43;;;4.03;;
8312;SDS011;4194;43.408;24.626;2024-02-21T11:40:55;6.07;;;4.37;;
8312;SDS011;4194;43.408;24.626;2024-02-21T11:43:21;6.10;;;3.73;;
8312;SDS011;4194;43.408;24.626;2024-02-21T11:45:46;4.13;;;3.73;;
8312;SDS011;4194;43.408;24.626;2024-02-21T11:48:12;6.37;;;4.13;;
8312;SDS011;4194;43.408;24.626;2024-02-21T11:50:39;5.47;;;4.67;;
8312;SDS011;4194;43.408;24.626;2024-02-21T11:53:05;8.00;;;5.23;;
8312;SDS011;4194;43.408;24.626;2024-02-21T11:55:30;6.63;;;5.27;;
8312;SDS011;4194;43.408;24.626;2024-02-21T11:57:56;6.63;;;5.67;;
8312;SDS011;4194;43.408;24.626;2024-02-21T12:00:22;5.13;;;4.63;;
8312;SDS011;4194;43.408;24.626;2024-02-21T12:02:51;5.47;;;4.90;;
8312;SDS011;4194;43.408;24.626;2024-02-21T12:05:18;5.33;;;4.57;;
8312;SDS011;4194;43.408;24.626;2024-02-21T12:07:44;6.77;;;4.97;;
8312;SDS011;4194;43.408;24.626;2024-02-21T12:10:11;7.30;;;4.77;;
8312;SDS011;4194;43.408;24.626;2024-02-21T12:12:37;5.10;;;4.60;;
8312;SDS011;4194;43.408;24.626;2024-02-21T12:15:04;5.07;;;4.17;;
8312;SDS011;4194;43.408;24.626;2024-02-21T12:17:32;6.00;;;4.10;;
8312;SDS011;4194;43.408;24.626;2024-02-21T12:19:59;5.90;;;4.37;;
8312;SDS011;4194;43.408;24.626;2024-02-21T12:22:25;5.37;;;3.97;;
8312;SDS011;4194;43.408;24.626;2024-02-21T12:24:52;5.23;;;4.00;;
8312;SDS011;4194;43.408;24.626;2024-02-21T12:27:18;5.07;;;4.50;;
8312;SDS011;4194;43.408;24.626;2024-02-21T12:29:43;9.50;;;4.30;;
8312;SDS011;4194;43.408;24.626;2024-02-21T12:32:09;6.67;;;4.70;;
8312;SDS011;4194;43.408;24.626;2024-02-21T12:34:34;6.73;;;4.50;;
8312;SDS011;4194;43.408;24.626;2024-02-21T12:37:01;5.50;;;4.17;;
8312;SDS011;4194;43.408;24.626;2024-02-21T12:39:28;5.30;;;4.70;;
8312;SDS011;4194;43.408;24.626;2024-02-21T12:41:54;5.00;;;4.50;;
8312;SDS011;4194;43.408;24.626;2024-02-21T12:44:21;8.13;;;5.07;;
8312;SDS011;4194;43.408;24.626;2024-02-21T12:46:47;6.60;;;5.70;;
8312;SDS011;4194;43.408;24.626;2024-02-21T12:49:18;6.57;;;5.53;;
8312;SDS011;4194;43.408;24.626;2024-02-21T12:51:44;10.60;;;7.87;;
8312;SDS011;4194;43.408;24.626;2024-02-21T12:54:11;9.67;;;6.33;;
8312;SDS011;4194;43.408;24.626;2024-02-21T12:56:37;5.93;;;5.20;;
8312;SDS011;4194;43.408;24.626;2024-02-21T12:59:04;6.57;;;5.90;;
8312;SDS011;4194;43.408;24.626;2024-02-21T13:01:32;8.20;;;6.57;;
8312;SDS011;4194;43.408;24.626;2024-02-21T13:03:58;11.17;;;6.40;;
8312;SDS011;4194;43.408;24.626;2024-02-21T13:06:25;9.70;;;7.00;;
8312;SDS011;4194;43.408;24.626;2024-02-21T13:08:51;9.93;;;6.70;;
8312;SDS011;4194;43.408;24.626;2024-02-21T13:11:17;8.50;;;6.63;;
8312;SDS011;4194;43.408;24.626;2024-02-21T13:13:43;8.17;;;6.90;;
8312;SDS011;4194;43.408;24.626;2024-02-21T13:16:09;10.63;;;6.53;;
8312;SDS011;4194;43.408;24.626;2024-02-21T13:18:35;9.50;;;7.13;;
8312;SDS011;4194;43.408;24.626;2024-02-21T13:21:03;9.53;;;6.87;;
8312;SDS011;4194;43.408;24.626;2024-02-21T13:23:29;9.17;;;7.03;;
8312;SDS011;4194;43.408;24.626;2024-02-21T13:25:55;12.70;;;6.83;;
8312;SDS011;4194;43.408;24.626;2024-02-21T13:28:21;10.77;;;7.47;;
8312;SDS011;4194;43.408;24.626;2024-02-21T13:30:46;10.00;;;7.60;;
8312;SDS011;4194;43.408;24.626;2024-02-21T13:33:12;10.30;;;7.43;;
8312;SDS011;4194;43.408;24.626;2024-02-21T13:35:38;8.80;;;7.90;;
8312;SDS011;4194;43.408;24.626;2024-02-21T13:38:04;12.33;;;8.37;;
8312;SDS011;4194;43.408;24.626;2024-02-21T13:40:30;9.70;;;8.03;;
8312;SDS011;4194;43.408;24.626;2024-02-21T13:42:56;9.67;;;7.57;;
8312;SDS011;4194;43.408;24.626;2024-02-21T13:45:21;10.70;;;8.60;;
8312;SDS011;4194;43.408;24.626;2024-02-21T13:47:47;13.53;;;8.90;;
8312;SDS011;4194;43.408;24.626;2024-02-21T13:50:13;10.97;;;9.10;;
8312;SDS011;4194;43.408;24.626;2024-02-21T13:52:40;13.80;;;8.70;;
8312;SDS011;4194;43.408;24.626;2024-02-21T13:55:06;12.27;;;9.93;;
8312;SDS011;4194;43.408;24.626;2024-02-21T13:57:35;11.90;;;8.70;;
8312;SDS011;4194;43.408;24.626;2024-02-21T14:00:04;11.07;;;9.63;;
8312;SDS011;4194;43.408;24.626;2024-02-21T14:02:30;15.80;;;11.07;;
8312;SDS011;4194;43.408;24.626;2024-02-21T14:04:56;13.40;;;9.57;;
8312;SDS011;4194;43.408;24.626;2024-02-21T14:07:22;15.63;;;9.97;;
8312;SDS011;4194;43.408;24.626;2024-02-21T14:09:47;14.50;;;10.23;;
8312;SDS011;4194;43.408;24.626;2024-02-21T14:12:13;17.73;;;9.93;;
8312;SDS011;4194;43.408;24.626;2024-02-21T14:14:42;12.63;;;10.00;;
8312;SDS011;4194;43.408;24.626;2024-02-21T14:17:09;11.47;;;9.97;;
8312;SDS011;4194;43.408;24.626;2024-02-21T14:19:35;12.50;;;8.80;;
8312;SDS011;4194;43.408;24.626;2024-02-21T14:22:00;12.50;;;7.33;;
8312;SDS011;4194;43.408;24.626;2024-02-21T14:24:27;11.67;;;7.00;;
8312;SDS011;4194;43.408;24.626;2024-02-21T14:26:53;9.27;;;6.30;;
8312;SDS011;4194;43.408;24.626;2024-02-21T14:29:20;10.90;;;6.40;;
8312;SDS011;4194;43.408;24.626;2024-02-21T14:31:46;11.37;;;8.20;;
8312;SDS011;4194;43.408;24.626;2024-02-21T14:34:12;10.53;;;7.47;;
8312;SDS011;4194;43.408;24.626;2024-02-21T14:36:38;9.00;;;7.17;;
8312;SDS011;4194;43.408;24.626;2024-02-21T14:39:03;11.87;;;7.67;;
8312;SDS011;4194;43.408;24.626;2024-02-21T14:41:30;8.33;;;7.10;;
8312;SDS011;4194;43.408;24.626;2024-02-21T14:43:55;9.93;;;6.60;;
8312;SDS011;4194;43.408;24.626;2024-02-21T14:46:25;12.73;;;7.03;;